Time;durP1;ratioP1;P1;durP2;ratioP2;P2;SDS_P1;SDS_P2;PMS_P1;PMS_P2;Temp;Humidity;BMP_temperature;BMP_pressure;BME280_temperature;BME280_humidity;BME280_pressure;Samples;Min_cycle;Max_cycle;Signal;HPM_P1;HPM_P2
2022/10/02 00:01:12;;;;;;;;;6.67;5.33;;;;;17.96;58.06;101557.59;5041866;28;45260;-80
2022/10/02 00:03:42;;;;;;;;;7.33;5.33;;;;;17.96;57.82;101564.69;5039510;28;47523;-79
2022/10/02 00:06:23;;;;;;;;;5.33;5.33;;;;;17.93;58.02;101570.09;5041650;28;45302;-78
2022/10/02 00:08:56;;;;;;;;;5.33;4.00;;;;;17.92;58.41;101565.69;5040112;28;45374;-78
2022/10/02 00:11:25;;;;;;;;;4.00;4.00;;;;;17.91;58.95;101571.91;5039666;28;45574;-78
2022/10/02 00:14:01;;;;;;;;;7.75;7.00;;;;;17.92;59.15;101573.69;5042168;28;46574;-79
2022/10/02 00:16:33;;;;;;;;;6.00;6.00;;;;;17.91;59.48;101569.22;5038654;28;45495;-79
2022/10/02 00:19:05;;;;;;;;;5.00;3.50;;;;;17.92;59.64;101584.31;5040658;28;45442;-78
2022/10/02 00:21:37;;;;;;;;;4.33;3.67;;;;;17.93;59.49;101584.28;5038072;28;45458;-78
2022/10/02 00:24:05;;;;;;;;;4.67;4.33;;;;;17.92;60.05;101579.00;5039373;28;46337;-79
2022/10/02 00:27:19;;;;;;;;;6.33;4.00;;;;;17.90;60.11;101576.34;5039022;28;45841;-79
2022/10/02 00:29:52;;;;;;;;;6.67;4.67;;;;;17.92;60.14;101579.88;5036223;28;45336;-79
2022/10/02 00:32:36;;;;;;;;;3.00;3.00;;;;;17.95;60.69;101582.47;5039047;28;45557;-78
2022/10/02 00:35:20;;;;;;;;;5.00;5.00;;;;;17.99;60.35;101578.84;5026643;28;47071;-78
2022/10/02 00:38:04;;;;;;;;;3.67;3.00;;;;;18.02;60.64;101580.56;5040422;28;45491;-79
2022/10/02 00:41:07;;;;;;;;;5.33;5.33;;;;;18.03;60.62;101587.63;5042183;28;45319;-78
2022/10/02 00:43:54;;;;;;;;;10.00;7.67;;;;;18.05;60.93;101591.16;5040601;28;45555;-79
2022/10/02 00:46:38;;;;;;;;;5.00;5.00;;;;;18.07;60.85;101587.56;5041416;28;46416;-79
2022/10/02 00:49:22;;;;;;;;;3.00;3.00;;;;;18.09;60.66;101592.81;5041100;28;45519;-79
2022/10/02 00:52:02;;;;;;;;;4.33;3.00;;;;;18.08;60.72;101583.09;5028626;28;45578;-79
2022/10/02 00:54:45;;;;;;;;;3.67;3.67;;;;;18.12;61.10;101592.75;5034467;28;45435;-79
2022/10/02 00:57:49;;;;;;;;;4.67;3.67;;;;;18.14;60.96;101595.41;5036557;28;46786;-78
2022/10/02 01:00:20;;;;;;;;;6.00;5.00;;;;;18.12;61.12;101599.88;5036863;28;45846;-78
2022/10/02 01:03:10;;;;;;;;;3.00;3.00;;;;;18.12;61.61;101600.75;5041415;28;45357;-78
2022/10/02 01:05:36;;;;;;;;;4.67;4.00;;;;;18.13;61.50;101594.53;5039788;28;45523;-78
2022/10/02 01:08:03;;;;;;;;;5.33;5.00;;;;;18.15;61.26;101587.41;5039498;28;46919;-79
2022/10/02 01:10:29;;;;;;;;;4.00;3.33;;;;;18.17;61.70;101577.53;5039991;28;45291;-78
2022/10/02 01:12:56;;;;;;;;;3.33;3.33;;;;;18.16;62.11;101593.59;5039838;28;45307;-78
2022/10/02 01:15:28;;;;;;;;;4.00;4.00;;;;;18.07;62.39;101584.00;5028639;28;45323;-78
2022/10/02 01:17:55;;;;;;;;;3.00;3.00;;;;;18.05;62.92;101578.72;5039735;28;47792;-78
2022/10/02 01:20:42;;;;;;;;;3.33;3.00;;;;;18.04;63.14;101587.63;5041637;28;45209;-79
2022/10/02 01:23:33;;;;;;;;;4.33;3.00;;;;;18.02;63.57;101586.78;5027701;28;45388;-78
2022/10/02 01:25:59;;;;;;;;;2.33;2.33;;;;;17.93;63.98;101584.28;5041390;28;45160;-78
2022/10/02 01:28:26;;;;;;;;;4.33;4.33;;;;;17.93;64.63;101581.63;5040100;28;47282;-78
2022/10/02 01:30:58;;;;;;;;;3.00;3.00;;;;;17.91;65.19;101586.13;5039633;28;45653;-78
2022/10/02 01:33:24;;;;;;;;;5.33;4.33;;;;;17.86;65.45;101588.00;5032905;28;45247;-78
2022/10/02 01:35:50;;;;;;;;;4.00;4.00;;;;;17.83;65.48;101574.75;5020326;28;45470;-78
2022/10/02 01:38:22;;;;;;;;;2.00;2.00;;;;;17.79;65.89;101587.22;5021858;28;45328;-78
2022/10/02 01:40:47;;;;;;;;;3.00;3.00;;;;;17.74;66.50;101583.75;5038724;28;45302;-77
2022/10/02 01:43:15;;;;;;;;;4.33;4.00;;;;;17.73;66.50;101582.00;5040200;28;45237;-77
2022/10/02 01:46:02;;;;;;;;;4.33;4.00;;;;;17.75;66.88;101589.94;5036062;28;45544;-77
2022/10/02 01:48:44;;;;;;;;;3.00;2.67;;;;;17.73;67.53;101579.34;5021024;28;46703;-78
2022/10/02 01:51:25;;;;;;;;;3.67;3.00;;;;;17.75;66.98;101576.63;5027727;28;45360;-78
2022/10/02 01:54:29;;;;;;;;;6.00;4.67;;;;;17.74;67.28;101580.22;5026463;28;45574;-78
2022/10/02 01:57:19;;;;;;;;;4.00;3.00;;;;;17.74;67.31;101572.22;5039714;28;45303;-78
2022/10/02 01:59:56;;;;;;;;;4.00;3.00;;;;;17.74;67.90;101567.75;5037389;28;46402;-78
2022/10/02 02:02:36;;;;;;;;;5.67;3.33;;;;;17.75;67.63;101565.97;5038895;28;45425;-78
2022/10/02 02:05:17;;;;;;;;;4.00;3.67;;;;;17.78;67.81;101565.94;5040951;28;45206;-78
2022/10/02 02:07:54;;;;;;;;;3.33;3.00;;;;;17.80;67.65;101564.13;5040750;28;45276;-79
2022/10/02 02:10:31;;;;;;;;;4.00;4.00;;;;;17.85;68.08;101567.56;5040745;28;45456;-77
2022/10/02 02:13:10;;;;;;;;;3.00;3.00;;;;;17.86;67.84;101564.03;5039619;28;45390;-78
2022/10/02 02:15:45;;;;;;;;;1.67;1.33;;;;;17.84;67.78;101561.38;5029478;28;45352;-78
2022/10/02 02:18:13;;;;;;;;;3.67;3.67;;;;;17.90;67.85;101559.50;5039066;28;45552;-78
2022/10/02 02:20:47;;;;;;;;;2.00;2.00;;;;;17.91;67.71;101559.47;5039393;28;48317;-78
2022/10/02 02:23:21;;;;;;;;;2.67;2.67;;;;;17.96;67.87;101559.34;5039267;28;46456;-78
2022/10/02 02:25:51;;;;;;;;;4.00;3.33;;;;;17.92;67.93;101558.56;5040894;28;45461;-78
2022/10/02 02:28:20;;;;;;;;;2.00;2.00;;;;;17.92;68.41;101558.56;5027573;28;45169;-78
2022/10/02 02:30:51;;;;;;;;;3.00;2.00;;;;;17.89;68.18;101555.09;5040199;28;46349;-78
2022/10/02 02:33:24;;;;;;;;;1.67;1.67;;;;;17.88;68.76;101545.31;5040289;28;45299;-78
2022/10/02 02:35:55;;;;;;;;;4.00;1.33;;;;;17.85;69.12;101535.63;5025959;28;45463;-78
2022/10/02 02:38:39;;;;;;;;;2.67;1.33;;;;;17.83;69.48;101538.31;5039106;28;45569;-77
2022/10/02 02:41:12;;;;;;;;;2.00;2.00;;;;;17.86;69.61;101545.38;5040116;28;45546;-78
2022/10/02 02:43:49;;;;;;;;;5.00;2.67;;;;;17.88;69.76;101540.00;5041539;28;45286;-79
2022/10/02 02:46:24;;;;;;;;;2.00;2.00;;;;;17.88;69.76;101530.22;5039408;28;45283;-77
2022/10/02 02:49:04;;;;;;;;;2.00;1.67;;;;;17.88;69.80;101535.53;5040143;28;45576;-79
2022/10/02 02:51:35;;;;;;;;;1.67;1.00;;;;;17.90;70.25;101530.19;5038642;28;46932;-78
2022/10/02 02:54:08;;;;;;;;;0.33;0.33;;;;;17.89;70.24;101523.13;5040148;28;45268;-78
2022/10/02 02:56:35;;;;;;;;;2.00;2.00;;;;;17.89;70.04;101520.47;5039169;28;45296;-78
2022/10/02 02:59:12;;;;;;;;;1.33;1.33;;;;;17.93;70.41;101519.47;5035549;28;45539;-79
2022/10/02 03:01:37;;;;;;;;;4.00;2.33;;;;;17.90;70.44;101506.22;5038843;28;46413;-78
2022/10/02 03:04:03;;;;;;;;;1.33;1.33;;;;;17.91;70.41;101515.94;5039652;28;45342;-78
2022/10/02 03:06:39;;;;;;;;;2.00;2.00;;;;;17.90;70.39;101516.88;5041317;28;45433;-78
2022/10/02 03:09:10;;;;;;;;;3.00;3.00;;;;;17.90;70.67;101515.09;5028478;28;45500;-78
2022/10/02 03:12:05;;;;;;;;;2.00;2.00;;;;;17.90;70.96;101506.22;5041403;28;45403;-78
2022/10/02 03:14:48;;;;;;;;;2.00;2.00;;;;;17.90;71.03;101503.56;5038805;28;45283;-78
2022/10/02 03:17:32;;;;;;;;;2.00;2.00;;;;;17.93;70.97;101503.47;5040471;28;45207;-78
2022/10/02 03:20:02;;;;;;;;;2.00;2.00;;;;;17.92;71.08;101510.59;5040191;28;45248;-78
2022/10/02 03:22:54;;;;;;;;;1.00;0.67;;;;;17.90;70.90;101488.44;5040044;28;45457;-78
2022/10/02 03:25:40;;;;;;;;;1.00;1.00;;;;;17.91;71.22;101497.31;5029609;28;45481;-78
2022/10/02 03:28:05;;;;;;;;;2.33;2.00;;;;;17.93;71.74;101493.69;5039815;28;45232;-79
2022/10/02 03:30:32;;;;;;;;;1.00;1.00;;;;;17.94;71.10;101489.28;5040291;28;45506;-78
2022/10/02 03:32:59;;;;;;;;;1.00;1.00;;;;;17.91;71.19;101492.88;5039665;28;45621;-78
2022/10/02 03:35:26;;;;;;;;;0.33;0.33;;;;;17.92;71.24;101491.97;5035515;28;45804;-78
2022/10/02 03:37:57;;;;;;;;;2.67;2.67;;;;;17.94;71.52;101497.25;5039577;28;45181;-78
2022/10/02 03:40:24;;;;;;;;;1.00;1.00;;;;;17.92;71.35;101499.94;5039822;28;45390;-78
2022/10/02 03:42:51;;;;;;;;;1.67;1.00;;;;;17.94;71.83;101494.59;5039567;28;45708;-78
2022/10/02 03:45:18;;;;;;;;;0.33;0.33;;;;;17.94;71.98;101490.13;5039450;28;45326;-79
2022/10/02 03:47:44;;;;;;;;;1.00;1.00;;;;;17.97;71.97;101491.88;5039778;28;45265;-78
2022/10/02 03:50:13;;;;;;;;;3.00;1.33;;;;;17.98;72.05;101499.81;5039990;28;45236;-78
2022/10/02 03:52:38;;;;;;;;;1.00;1.00;;;;;17.99;72.22;101500.66;5025364;28;48319;-79
2022/10/02 03:55:26;;;;;;;;;0.00;0.00;;;;;18.00;71.90;101500.66;5038308;28;45445;-79
2022/10/02 03:57:53;;;;;;;;;1.00;1.00;;;;;18.01;71.90;101494.41;5026813;28;45264;-78
2022/10/02 04:00:29;;;;;;;;;1.67;1.67;;;;;18.02;72.08;101492.63;5035911;28;45209;-78
2022/10/02 04:02:59;;;;;;;;;1.00;1.00;;;;;18.04;72.14;101491.69;5037649;28;47056;-79
2022/10/02 04:06:03;;;;;;;;;0.00;0.00;;;;;18.07;72.12;101496.94;5039186;28;45275;-79
2022/10/02 04:09:08;;;;;;;;;1.67;1.67;;;;;18.09;72.05;101488.91;5017086;28;45416;-78
2022/10/02 04:11:58;;;;;;;;;1.00;1.00;;;;;18.12;72.07;101491.50;5034681;28;45474;-78
2022/10/02 04:14:33;;;;;;;;;1.67;1.00;;;;;18.13;71.75;101487.06;5039150;28;46304;-77
2022/10/02 04:17:04;;;;;;;;;1.00;1.00;;;;;18.15;71.96;101490.53;5017862;28;45304;-78
2022/10/02 04:19:48;;;;;;;;;0.33;0.33;;;;;18.14;71.81;101497.66;5033558;28;45435;-79
2022/10/02 04:22:13;;;;;;;;;0.67;0.67;;;;;18.18;71.71;101495.81;5038000;28;45445;-78
2022/10/02 04:24:47;;;;;;;;;0.00;0.00;;;;;18.17;72.30;101497.59;5040300;28;46004;-77
2022/10/02 04:27:17;;;;;;;;;0.00;0.00;;;;;18.18;72.14;101491.38;5041590;28;45434;-79
2022/10/02 04:29:48;;;;;;;;;0.67;0.00;;;;;18.19;71.99;101500.22;5042746;28;45227;-78
2022/10/02 04:32:16;;;;;;;;;0.33;0.33;;;;;18.19;71.79;101501.09;5040872;28;45445;-78
2022/10/02 04:34:42;;;;;;;;;0.00;0.00;;;;;18.19;72.33;101500.22;5040868;28;47699;-79
2022/10/02 04:37:19;;;;;;;;;1.00;1.00;;;;;18.16;72.08;101493.19;5041139;28;45880;-78
2022/10/02 04:40:21;;;;;;;;;0.33;0.00;;;;;18.18;72.11;101496.69;5034678;28;45189;-78
2022/10/02 04:42:56;;;;;;;;;0.33;0.00;;;;;18.20;72.34;101499.31;5041843;28;45316;-77
2022/10/02 04:45:34;;;;;;;;;0.00;0.00;;;;;18.20;72.52;101496.66;5042068;28;46312;-79
2022/10/02 04:48:08;;;;;;;;;0.00;0.00;;;;;18.20;72.26;101499.31;5042003;28;45295;-78
2022/10/02 04:50:44;;;;;;;;;0.00;0.00;;;;;18.20;71.95;101500.22;5040755;28;45484;-78
2022/10/02 04:53:40;;;;;;;;;0.00;0.00;;;;;18.21;72.16;101493.97;5042184;28;45350;-79
2022/10/02 04:56:30;;;;;;;;;0.00;0.00;;;;;18.23;72.12;101493.91;5029496;28;45270;-78
2022/10/02 04:59:13;;;;;;;;;0.00;0.00;;;;;18.23;72.30;101494.81;5037944;28;45466;-78
2022/10/02 05:01:57;;;;;;;;;0.00;0.00;;;;;18.24;72.16;101511.66;5041966;28;45418;-78
2022/10/02 05:04:28;;;;;;;;;0.00;0.00;;;;;18.24;71.85;101509.00;5030799;28;45400;-78
2022/10/02 05:07:08;;;;;;;;;0.33;0.33;;;;;18.20;72.40;101501.97;5041696;28;45422;-79
2022/10/02 05:10:00;;;;;;;;;1.00;1.00;;;;;18.20;71.88;101497.53;5040423;28;45394;-78
2022/10/02 05:12:35;;;;;;;;;0.00;0.00;;;;;18.23;72.01;101510.81;5030263;28;45288;-80
2022/10/02 05:15:07;;;;;;;;;0.33;0.00;;;;;18.22;72.23;101514.34;5040623;28;45421;-78
2022/10/02 05:18:17;;;;;;;;;0.00;0.00;;;;;18.22;71.94;101516.16;5041289;28;45693;-78
2022/10/02 05:20:51;;;;;;;;;0.00;0.00;;;;;18.21;71.87;101517.06;5040295;28;45955;-78
2022/10/02 05:23:54;;;;;;;;;0.00;0.00;;;;;18.21;72.06;101523.28;5037388;28;45456;-78
2022/10/02 05:26:28;;;;;;;;;0.00;0.00;;;;;18.17;72.26;101515.38;5040226;28;45367;-78
2022/10/02 05:29:15;;;;;;;;;0.00;0.00;;;;;18.15;72.18;101519.84;5040397;28;46820;-79
2022/10/02 05:31:57;;;;;;;;;0.00;0.00;;;;;18.10;71.94;101519.13;5019856;28;46340;-78
2022/10/02 05:34:30;;;;;;;;;0.00;0.00;;;;;18.04;72.24;101518.34;5037469;28;45291;-80
2022/10/02 05:37:20;;;;;;;;;0.00;0.00;;;;;18.00;72.28;101529.97;5039611;28;45355;-80
2022/10/02 05:39:53;;;;;;;;;0.00;0.00;;;;;17.97;72.28;101526.50;5041396;28;46136;-80
2022/10/02 05:42:24;;;;;;;;;0.00;0.00;;;;;17.95;72.28;101529.19;5039912;28;45814;-80
2022/10/02 05:45:03;;;;;;;;;0.00;0.00;;;;;17.92;72.33;101529.25;5041288;28;45343;-80
2022/10/02 05:47:34;;;;;;;;;0.00;0.00;;;;;17.89;72.74;101533.78;5040748;28;45324;-79
2022/10/02 05:50:15;;;;;;;;;0.00;0.00;;;;;17.87;72.90;101532.94;5036413;28;48152;-80
2022/10/02 05:52:58;;;;;;;;;0.00;0.00;;;;;17.86;72.82;101540.06;5040861;28;45321;-80
2022/10/02 05:55:48;;;;;;;;;0.00;0.00;;;;;17.89;72.78;101539.09;5041345;28;45235;-79
2022/10/02 05:58:29;;;;;;;;;0.00;0.00;;;;;17.90;72.54;101551.50;5037635;28;45793;-79
2022/10/02 06:01:08;;;;;;;;;0.67;0.00;;;;;17.91;72.45;101545.25;5019721;28;47916;-80
2022/10/02 06:03:59;;;;;;;;;0.00;0.00;;;;;17.91;72.76;101538.16;5034812;28;45535;-80
2022/10/02 06:06:39;;;;;;;;;0.00;0.00;;;;;17.96;72.22;101546.03;5041078;28;45363;-80
2022/10/02 06:09:22;;;;;;;;;0.00;0.00;;;;;17.96;72.34;101551.38;5040843;28;45387;-79
2022/10/02 06:12:03;;;;;;;;;1.00;0.67;;;;;17.97;72.54;101543.34;5039490;28;45960;-80
2022/10/02 06:15:01;;;;;;;;;1.00;1.00;;;;;18.00;72.50;101548.63;5039404;28;45462;-79
2022/10/02 06:17:32;;;;;;;;;0.00;0.00;;;;;17.97;72.03;101545.16;5045846;28;45564;-80
2022/10/02 06:20:19;;;;;;;;;0.00;0.00;;;;;17.96;72.29;101546.94;5040605;28;45186;-80
2022/10/02 06:23:18;;;;;;;;;0.00;0.00;;;;;17.93;72.32;101543.44;5038875;28;47274;-80
2022/10/02 06:25:51;;;;;;;;;0.00;0.00;;;;;17.91;72.43;101539.94;5039129;28;45553;-79
2022/10/02 06:28:34;;;;;;;;;0.00;0.00;;;;;17.91;72.41;101543.50;5039194;28;45485;-79
2022/10/02 06:31:20;;;;;;;;;0.00;0.00;;;;;17.93;72.37;101544.31;5040419;28;45244;-79
2022/10/02 06:33:45;;;;;;;;;1.00;1.00;;;;;17.92;72.28;101545.25;5039796;28;46025;-80
2022/10/02 06:36:16;;;;;;;;;1.00;1.00;;;;;17.95;72.59;101542.50;5040300;28;45391;-80
2022/10/02 06:38:51;;;;;;;;;0.00;0.00;;;;;17.97;72.49;101543.34;5039258;28;45282;-79
2022/10/02 06:41:38;;;;;;;;;0.33;0.00;;;;;17.97;72.33;101535.38;5027506;28;45324;-80
2022/10/02 06:44:18;;;;;;;;;1.33;0.00;;;;;17.99;72.20;101543.31;5039898;28;46537;-80
2022/10/02 06:47:03;;;;;;;;;0.00;0.00;;;;;17.99;72.12;101535.31;5040082;28;45418;-81
2022/10/02 06:49:51;;;;;;;;;0.00;0.00;;;;;18.00;72.19;101551.28;5039615;28;45434;-81
2022/10/02 06:52:35;;;;;;;;;0.00;0.00;;;;;18.02;72.18;101546.81;5025126;28;45775;-81
2022/10/02 06:55:26;;;;;;;;;0.00;0.00;;;;;18.04;72.17;101544.97;5038663;28;47758;-81
2022/10/02 06:58:10;;;;;;;;;0.00;0.00;;;;;18.04;72.33;101544.97;5040010;28;45859;-81
2022/10/02 07:00:46;;;;;;;;;0.67;0.00;;;;;18.06;72.51;101545.81;5037597;28;45266;-81
2022/10/02 07:03:43;;;;;;;;;0.00;0.00;;;;;18.11;72.57;101548.38;5025654;28;45933;-80
2022/10/02 07:06:22;;;;;;;;;0.33;0.33;;;;;18.10;72.32;101549.31;5039733;28;45423;-80
2022/10/02 07:09:05;;;;;;;;;0.00;0.00;;;;;18.17;72.32;101550.03;5038269;28;45210;-81
2022/10/02 07:11:42;;;;;;;;;0.00;0.00;;;;;18.18;72.20;101550.00;5039743;28;45468;-80
2022/10/02 07:14:07;;;;;;;;;0.00;0.00;;;;;18.24;72.34;101541.00;5034997;28;45496;-81
2022/10/02 07:16:33;;;;;;;;;1.00;1.00;;;;;18.26;71.92;101539.19;5036216;28;45811;-81
2022/10/02 07:19:11;;;;;;;;;1.33;1.00;;;;;18.24;71.92;101533.88;5039763;28;45304;-81
2022/10/02 07:21:42;;;;;;;;;1.00;1.00;;;;;18.33;71.91;101539.91;5039704;28;45426;-81
2022/10/02 07:25:01;;;;;;;;;0.00;0.00;;;;;18.33;71.32;101538.09;5040662;28;45338;-79
2022/10/02 07:27:45;;;;;;;;;0.00;0.00;;;;;18.36;71.58;101547.81;5011161;28;45469;-81
2022/10/02 07:30:15;;;;;;;;;0.00;0.00;;;;;18.36;71.26;101547.81;5015689;28;45495;-81
2022/10/02 07:32:46;;;;;;;;;0.00;0.00;;;;;18.37;71.49;101539.78;5018790;28;45345;-80
2022/10/02 07:35:29;;;;;;;;;0.00;0.00;;;;;18.39;70.95;101553.97;5026853;28;45620;-79
2022/10/02 07:38:41;;;;;;;;;0.00;0.00;;;;;18.40;71.03;101552.19;5038291;28;47567;-78
2022/10/02 07:41:18;;;;;;;;;0.67;0.67;;;;;18.39;71.05;101545.06;5032028;28;45205;-79
2022/10/02 07:43:58;;;;;;;;;0.00;0.00;;;;;18.39;70.96;101545.97;5032646;28;45295;-79
2022/10/02 07:46:32;;;;;;;;;0.67;0.67;;;;;18.41;70.27;101559.25;5029750;28;45479;-81
2022/10/02 07:49:27;;;;;;;;;0.00;0.00;;;;;18.45;70.56;101566.28;5036903;28;48136;-81
2022/10/02 07:52:27;;;;;;;;;0.00;0.00;;;;;18.49;70.10;101546.63;5034286;28;45450;-80
2022/10/02 07:55:21;;;;;;;;;0.00;0.00;;;;;18.57;70.15;101560.66;5020895;28;45190;-80
2022/10/02 07:57:55;;;;;;;;;1.00;1.00;;;;;18.63;69.88;101563.19;5020363;28;45399;-80
2022/10/02 08:00:25;;;;;;;;;2.00;1.00;;;;;18.69;70.17;101576.38;5027955;28;46451;-80
2022/10/02 08:02:58;;;;;;;;;0.67;0.33;;;;;18.74;69.78;101565.59;5041587;28;45197;-81
2022/10/02 08:05:29;;;;;;;;;1.00;1.00;;;;;18.80;69.65;101567.25;5041176;28;45315;-81
2022/10/02 08:08:01;;;;;;;;;1.00;1.00;;;;;18.90;69.54;101580.34;5036867;28;45328;-82
2022/10/02 08:10:35;;;;;;;;;1.00;0.00;;;;;18.95;69.21;101566.84;5041117;28;46445;-82
2022/10/02 08:13:13;;;;;;;;;2.00;0.67;;;;;19.06;69.03;101577.25;5022469;28;45283;-80
2022/10/02 08:15:43;;;;;;;;;0.00;0.00;;;;;19.14;68.88;101572.63;5033960;28;45337;-82
2022/10/02 08:18:32;;;;;;;;;2.00;1.00;;;;;19.25;68.50;101575.88;5030492;28;45576;-82
2022/10/02 08:20:59;;;;;;;;;1.33;1.33;;;;;19.33;68.16;101589.91;5034261;28;47311;-81
2022/10/02 08:23:28;;;;;;;;;2.67;1.00;;;;;19.35;67.80;101596.09;5030217;28;45478;-80
2022/10/02 08:26:10;;;;;;;;;1.00;1.00;;;;;19.34;67.77;101585.44;5043176;28;45430;-81
2022/10/02 08:28:59;;;;;;;;;0.33;0.33;;;;;19.39;67.78;101592.41;5042608;28;45533;-80
2022/10/02 08:31:24;;;;;;;;;1.00;1.00;;;;;19.43;67.89;101598.53;5044767;28;47749;-79
2022/10/02 08:33:50;;;;;;;;;1.33;1.33;;;;;19.49;67.30;101582.38;5042319;28;45368;-82
2022/10/02 08:36:39;;;;;;;;;2.00;0.67;;;;;19.57;67.19;101592.84;5042891;28;45239;-79
2022/10/02 08:39:33;;;;;;;;;1.33;1.00;;;;;19.70;66.78;101599.63;5040747;28;45433;-79
2022/10/02 08:42:36;;;;;;;;;1.33;0.67;;;;;19.86;66.58;101601.84;5034920;28;46614;-80
2022/10/02 08:45:07;;;;;;;;;3.00;2.00;;;;;20.02;66.58;101596.03;5041192;28;45428;-81
2022/10/02 08:47:55;;;;;;;;;2.00;1.00;;;;;20.17;66.34;101601.84;5040320;28;45330;-80
2022/10/02 08:50:29;;;;;;;;;4.00;4.00;;;;;20.23;65.78;101593.63;5040860;28;45585;-81
2022/10/02 08:53:16;;;;;;;;;2.33;2.00;;;;;20.27;65.53;101595.28;5035017;28;46285;-80
2022/10/02 08:56:06;;;;;;;;;1.00;1.00;;;;;20.30;65.13;101599.66;5046314;28;45520;-81
2022/10/02 08:59:04;;;;;;;;;1.00;1.00;;;;;20.34;65.06;101607.56;5042212;28;45374;-80
2022/10/02 09:01:35;;;;;;;;;1.00;0.33;;;;;20.37;65.31;101601.22;5023350;28;45422;-78
2022/10/02 09:04:19;;;;;;;;;1.33;1.00;;;;;20.43;65.14;101604.59;5032960;28;46337;-80
2022/10/02 09:07:27;;;;;;;;;1.67;1.67;;;;;20.46;65.05;101603.63;5041213;28;45464;-79
2022/10/02 09:10:26;;;;;;;;;2.67;2.00;;;;;20.42;64.73;101608.19;5020620;28;45459;-80
2022/10/02 09:13:25;;;;;;;;;1.00;1.00;;;;;20.44;65.03;101608.13;5023161;28;45238;-79
2022/10/02 09:16:09;;;;;;;;;1.67;1.67;;;;;20.43;64.37;101601.06;5036881;28;47082;-80
2022/10/02 09:18:58;;;;;;;;;3.00;2.33;;;;;20.41;64.78;101598.41;5041553;28;45510;-77
2022/10/02 09:21:49;;;;;;;;;1.00;1.00;;;;;20.46;64.51;101599.16;5040502;28;45589;-78
2022/10/02 09:24:32;;;;;;;;;0.50;0.50;;;;;20.49;64.61;101592.81;5040106;28;46080;-80
2022/10/02 09:27:00;;;;;;;;;3.00;0.67;;;;;20.56;64.72;101594.44;5041628;28;45497;-79
2022/10/02 09:30:06;;;;;;;;;1.00;1.00;;;;;20.68;64.43;101591.34;5040337;28;45554;-78
2022/10/02 09:33:05;;;;;;;;;0.67;0.67;;;;;20.77;64.12;101589.28;5037945;28;45329;-78
2022/10/02 09:36:01;;;;;;;;;0.67;0.67;;;;;20.85;63.93;101595.25;5041602;28;45658;-79
2022/10/02 09:38:49;;;;;;;;;1.00;1.00;;;;;20.91;63.94;101592.41;5040190;28;45465;-81
2022/10/02 09:42:19;;;;;;;;;0.00;0.00;;;;;20.96;63.51;101597.63;5040386;28;45574;-80
2022/10/02 09:45:02;;;;;;;;;1.00;1.00;;;;;21.04;63.35;101585.72;4978044;28;45305;-78
2022/10/02 09:48:10;;;;;;;;;2.00;2.00;;;;;21.17;63.13;101583.50;4967751;28;45481;-79
2022/10/02 09:50:54;;;;;;;;;0.00;0.00;;;;;21.41;62.68;101591.63;5018791;28;46544;-79
2022/10/02 09:53:38;;;;;;;;;0.00;0.00;;;;;21.58;62.59;101597.25;5037851;28;45252;-79
2022/10/02 09:56:22;;;;;;;;;1.00;0.00;;;;;21.76;62.31;101593.91;5039606;28;45313;-79
2022/10/02 09:59:12;;;;;;;;;0.00;0.00;;;;;21.87;61.66;101598.88;5023095;28;45514;-79
2022/10/02 10:01:55;;;;;;;;;0.00;0.00;;;;;21.99;61.50;101593.03;5039262;28;46545;-79
2022/10/02 10:04:45;;;;;;;;;0.00;0.00;;;;;22.11;61.06;101597.09;5039127;28;45276;-80
2022/10/02 10:07:38;;;;;;;;;0.00;0.00;;;;;22.19;60.54;101602.19;5039580;28;45510;-79
2022/10/02 10:10:13;;;;;;;;;0.00;0.00;;;;;22.25;60.33;101607.31;5019599;28;45514;-79
2022/10/02 10:12:48;;;;;;;;;0.00;0.00;;;;;22.29;60.27;101610.75;5035409;28;48437;-79
2022/10/02 10:15:20;;;;;;;;;1.00;1.00;;;;;22.32;59.73;101599.88;5040727;28;45446;-79
2022/10/02 10:18:18;;;;;;;;;1.00;0.00;;;;;22.46;59.73;101594.88;5020748;28;45344;-79
2022/10/02 10:21:37;;;;;;;;;0.00;0.00;;;;;22.61;59.08;101601.41;5038251;28;45526;-79
2022/10/02 10:24:19;;;;;;;;;0.67;0.67;;;;;22.65;58.60;101593.19;5004450;28;47162;-79
2022/10/02 10:27:06;;;;;;;;;0.00;0.00;;;;;22.74;58.31;101593.75;5010852;28;45569;-79
2022/10/02 10:29:53;;;;;;;;;0.00;0.00;;;;;22.78;57.75;101582.81;5029193;28;45590;-79
2022/10/02 10:32:58;;;;;;;;;0.00;0.00;;;;;22.86;57.83;101585.19;5038492;28;45272;-79
2022/10/02 10:35:23;;;;;;;;;0.33;0.33;;;;;22.94;57.30;101591.13;5038852;28;46983;-79
2022/10/02 10:38:33;;;;;;;;;0.00;0.00;;;;;22.97;56.90;101584.78;5040579;28;45290;-80
2022/10/02 10:41:20;;;;;;;;;0.00;0.00;;;;;23.01;57.15;101587.25;5027513;28;45486;-80
2022/10/02 10:43:50;;;;;;;;;1.00;1.00;;;;;22.95;56.62;101590.16;5040019;28;45402;-80
2022/10/02 10:46:18;;;;;;;;;0.00;0.00;;;;;22.79;56.98;101591.75;5038717;28;47250;-80
2022/10/02 10:49:13;;;;;;;;;1.00;1.00;;;;;22.67;56.99;101604.75;5039790;28;45437;-80
2022/10/02 10:52:18;;;;;;;;;0.00;0.00;;;;;22.63;57.00;101592.38;5038075;28;45362;-80
2022/10/02 10:55:02;;;;;;;;;0.00;0.00;;;;;22.60;56.92;101605.91;5020658;28;45579;-79
2022/10/02 10:57:56;;;;;;;;;0.33;0.33;;;;;22.52;57.16;101589.25;5040144;28;46413;-80
2022/10/02 11:00:23;;;;;;;;;0.00;0.00;;;;;22.56;57.05;101593.56;5039946;28;45240;-79
2022/10/02 11:03:07;;;;;;;;;1.00;0.00;;;;;22.63;57.37;101595.06;5039724;28;45484;-80
2022/10/02 11:05:48;;;;;;;;;0.67;0.00;;;;;22.74;56.89;101591.94;5040151;28;45396;-80
2022/10/02 11:08:38;;;;;;;;;0.00;0.00;;;;;22.85;56.86;101581.66;5038459;28;48191;-79
2022/10/02 11:11:15;;;;;;;;;0.00;0.00;;;;;23.06;56.74;101590.63;5039977;28;45399;-79
2022/10/02 11:14:05;;;;;;;;;1.00;0.67;;;;;23.18;56.25;101591.94;5038825;28;45320;-79
2022/10/02 11:17:09;;;;;;;;;0.67;0.67;;;;;23.04;55.43;101594.31;5037886;28;45731;-80
2022/10/02 11:19:55;;;;;;;;;1.67;0.67;;;;;22.82;55.91;101587.09;5038062;28;47458;-79
2022/10/02 11:22:38;;;;;;;;;2.00;0.67;;;;;22.61;55.70;101594.25;5038090;28;46108;-79
2022/10/02 11:25:32;;;;;;;;;0.67;0.67;;;;;22.43;55.77;101600.38;5026176;28;45304;-79
2022/10/02 11:28:13;;;;;;;;;0.00;0.00;;;;;22.25;56.19;101596.59;5027478;28;45290;-80
2022/10/02 11:31:15;;;;;;;;;1.00;1.00;;;;;22.06;56.72;101614.28;5037980;28;47862;-80
2022/10/02 11:33:59;;;;;;;;;0.33;0.33;;;;;21.93;56.74;101605.81;5039462;28;45267;-79
2022/10/02 11:36:44;;;;;;;;;1.00;1.00;;;;;21.81;57.22;101623.22;5042050;28;45319;-79
2022/10/02 11:39:31;;;;;;;;;11.33;11.33;;;;;21.75;57.03;101621.63;5041499;28;45189;-79
2022/10/02 11:42:15;;;;;;;;;1.00;0.67;;;;;21.67;57.24;101623.72;5041581;28;48530;-79
2022/10/02 11:45:01;;;;;;;;;0.67;0.00;;;;;21.65;57.83;101640.78;5041584;28;45248;-79
2022/10/02 11:47:52;;;;;;;;;0.00;0.00;;;;;21.50;58.81;101651.13;5041348;28;45529;-79
2022/10/02 11:50:40;;;;;;;;;1.33;1.33;;;;;21.30;60.51;101643.75;5041446;28;45210;-79
2022/10/02 11:53:22;;;;;;;;;0.00;0.00;;;;;21.14;61.41;101637.13;5037341;28;46594;-79
2022/10/02 11:56:20;;;;;;;;;1.33;1.00;;;;;21.02;62.21;101630.41;5043050;28;45177;-79
2022/10/02 11:59:05;;;;;;;;;2.00;1.00;;;;;20.99;62.51;101633.19;5025361;28;45327;-79
2022/10/02 12:01:44;;;;;;;;;0.00;0.00;;;;;20.98;63.07;101626.06;5040290;28;45228;-80
2022/10/02 12:04:34;;;;;;;;;1.00;1.00;;;;;21.15;63.32;101634.41;5041708;28;47819;-79
2022/10/02 12:07:30;;;;;;;;;0.00;0.00;;;;;21.19;63.05;101631.63;5030710;28;45232;-80
2022/10/02 12:10:22;;;;;;;;;3.00;1.00;;;;;21.16;63.58;101635.28;5029848;28;45473;-80
2022/10/02 12:12:58;;;;;;;;;0.67;0.67;;;;;21.10;63.51;101633.69;5042587;28;45442;-80
2022/10/02 12:15:38;;;;;;;;;0.00;0.00;;;;;21.22;63.47;101632.41;5042569;28;45365;-80
2022/10/02 12:18:09;;;;;;;;;1.33;0.33;;;;;21.34;63.12;101625.75;5042401;28;45461;-80
2022/10/02 12:29:42;;;;;;;;;0.00;0.00;;;;;21.41;62.49;101631.81;5032706;28;45406;-80
2022/10/02 12:32:28;;;;;;;;;0.33;0.33;;;;;21.65;62.73;101627.38;5031515;28;45482;-80
2022/10/02 12:35:41;;;;;;;;;1.67;1.00;;;;;21.91;62.59;101632.69;5057724;28;45362;-80
2022/10/02 12:38:33;;;;;;;;;0.00;0.00;;;;;22.19;61.88;101624.53;5031747;28;47015;-80